Time;durP1;ratioP1;P1;durP2;ratioP2;P2;SDS_P1;SDS_P2;PMS_P1;PMS_P2;Temp;Humidity;BMP_temperature;BMP_pressure;BME280_temperature;BME280_humidity;BME280_pressure;Samples;Min_cycle;Max_cycle;Signal;HPM_P1;HPM_P2
2022/06/04 04:22:42;;;;;;;11.52;9.90;;;;;;;15.84;100.00;100169.09;5108868;27;20369;-76
2022/06/04 04:25:09;;;;;;;11.80;10.57;;;;;;;15.91;100.00;100199.44;5109421;28;20114;-76
2022/06/04 04:27:35;;;;;;;11.73;10.53;;;;;;;15.96;100.00;100213.09;5087615;28;20024;-76
2022/06/04 04:30:01;;;;;;;11.25;10.07;;;;;;;16.03;100.00;100211.22;5089689;28;20044;-78
2022/06/04 04:32:26;;;;;;;11.50;10.10;;;;;;;16.09;100.00;100207.69;5104181;22;20044;-75
2022/06/04 04:34:52;;;;;;;15.55;11.05;;;;;;;16.23;100.00;100230.78;5089069;28;20065;-75
2022/06/04 04:37:17;;;;;;;11.55;10.02;;;;;;;16.29;100.00;100218.38;5104574;28;20042;-74
2022/06/04 04:39:43;;;;;;;12.52;10.73;;;;;;;16.44;100.00;100220.84;5088905;28;20111;-75
2022/06/04 04:42:08;;;;;;;12.02;10.15;;;;;;;16.55;100.00;100218.28;5090518;28;20478;-75
2022/06/04 04:44:34;;;;;;;12.15;10.80;;;;;;;16.65;100.00;100208.97;5109041;28;20044;-75
2022/06/04 04:46:59;;;;;;;12.13;10.55;;;;;;;16.78;100.00;100222.38;5109272;28;20036;-75
2022/06/04 04:49:25;;;;;;;11.65;10.45;;;;;;;16.89;100.00;100220.84;5107974;28;20408;-75
2022/06/04 04:51:50;;;;;;;13.98;10.88;;;;;;;16.95;100.00;100223.56;5108676;28;20445;-75
2022/06/04 04:54:16;;;;;;;12.43;10.70;;;;;;;17.00;100.00;100233.66;5108895;28;20232;-75
2022/06/04 04:56:42;;;;;;;12.73;11.43;;;;;;;17.06;100.00;100244.38;5109207;28;20040;-75
2022/06/04 04:59:08;;;;;;;12.00;10.77;;;;;;;17.05;100.00;100260.72;5107461;28;20118;-76
2022/06/04 05:01:34;;;;;;;12.02;10.57;;;;;;;17.09;100.00;100276.25;5108536;28;20031;-74
2022/06/04 05:04:00;;;;;;;11.40;10.13;;;;;;;17.08;100.00;100290.75;5108689;28;20047;-77
2022/06/04 05:06:25;;;;;;;11.23;10.02;;;;;;;17.11;100.00;100286.78;5107489;28;20024;-76
2022/06/04 05:08:53;;;;;;;12.10;10.23;;;;;;;17.12;100.00;100284.91;5108830;28;20143;-76
2022/06/04 05:11:24;;;;;;;13.43;10.43;;;;;;;17.11;100.00;100280.59;5108485;28;20507;-76
2022/06/04 05:13:50;;;;;;;12.30;10.43;;;;;;;17.12;100.00;100282.22;5108442;28;20472;-76
2022/06/04 05:16:17;;;;;;;11.38;10.18;;;;;;;17.13;100.00;100283.88;5108506;28;20042;-76
2022/06/04 05:18:42;;;;;;;12.20;10.05;;;;;;;17.11;100.00;100291.34;5108800;28;20392;-76
2022/06/04 05:21:25;;;;;;;11.32;10.07;;;;;;;17.07;100.00;100289.06;5108620;28;20035;-76
2022/06/04 05:23:54;;;;;;;12.98;10.93;;;;;;;17.11;100.00;100292.16;5108056;28;20477;-76
2022/06/04 05:26:20;;;;;;;13.32;10.98;;;;;;;17.13;100.00;100286.56;5108213;28;20085;-76
2022/06/04 05:28:46;;;;;;;12.10;9.70;;;;;;;17.15;100.00;100293.41;5090254;28;20032;-76
2022/06/04 05:31:11;;;;;;;13.05;10.77;;;;;;;17.20;100.00;100300.81;5106812;28;20085;-76
2022/06/04 05:33:37;;;;;;;13.93;10.80;;;;;;;17.22;100.00;100298.75;5096654;28;20090;-76
2022/06/04 05:36:03;;;;;;;13.15;10.68;;;;;;;17.25;100.00;100306.38;5094700;28;20073;-76
2022/06/04 05:38:29;;;;;;;13.63;12.05;;;;;;;17.23;100.00;100317.38;5094526;28;20095;-76
2022/06/04 05:40:59;;;;;;;15.82;11.43;;;;;;;17.25;100.00;100317.97;5094713;28;20040;-75
2022/06/04 05:43:24;;;;;;;14.50;12.40;;;;;;;17.30;100.00;100344.25;5094008;28;20035;-74
2022/06/04 05:46:00;;;;;;;14.70;12.40;;;;;;;17.31;100.00;100340.53;5094444;28;20044;-75
2022/06/04 05:48:26;;;;;;;17.25;13.45;;;;;;;17.34;100.00;100343.63;5094531;28;20378;-76
2022/06/04 05:50:52;;;;;;;15.55;13.32;;;;;;;17.37;100.00;100345.03;5094331;28;20047;-76
2022/06/04 05:53:17;;;;;;;20.42;15.02;;;;;;;17.43;100.00;100338.81;5092593;28;20044;-74
2022/06/04 05:55:43;;;;;;;19.48;14.98;;;;;;;17.49;100.00;100337.13;5094169;28;20086;-76
2022/06/04 05:58:08;;;;;;;19.23;15.82;;;;;;;17.49;100.00;100326.34;5094180;28;20488;-74
2022/06/04 06:00:33;;;;;;;17.70;15.80;;;;;;;17.51;100.00;100317.00;5094147;28;20119;-75
2022/06/04 06:02:59;;;;;;;20.33;16.10;;;;;;;17.52;100.00;100324.03;5092515;28;20060;-74
2022/06/04 06:05:24;;;;;;;18.73;15.25;;;;;;;17.58;100.00;100336.63;5093945;28;20489;-74
2022/06/04 06:07:50;;;;;;;19.92;15.52;;;;;;;17.60;100.00;100329.19;5093796;28;20054;-74
2022/06/04 06:10:16;;;;;;;20.20;16.05;;;;;;;17.60;100.00;100329.19;5094157;28;20066;-74
2022/06/04 06:12:42;;;;;;;22.20;16.27;;;;;;;17.62;100.00;100332.47;5093751;28;20063;-74
2022/06/04 06:15:08;;;;;;;22.88;15.98;;;;;;;17.66;100.00;100329.31;5093846;28;20039;-74
2022/06/04 06:17:33;;;;;;;21.48;16.13;;;;;;;17.66;100.00;100332.03;5093867;28;20040;-74
2022/06/04 06:19:59;;;;;;;19.23;15.50;;;;;;;17.68;100.00;100321.88;5093816;28;20500;-74
2022/06/04 06:22:24;;;;;;;21.35;15.82;;;;;;;17.70;100.00;100325.16;5093238;28;20036;-73
2022/06/04 06:24:50;;;;;;;18.70;16.30;;;;;;;17.69;100.00;100318.97;5093758;28;20040;-74
2022/06/04 06:27:15;;;;;;;22.33;17.30;;;;;;;17.69;100.00;100318.97;5093591;28;20131;-74
2022/06/04 06:29:40;;;;;;;21.77;17.60;;;;;;;17.70;100.00;100327.88;5092582;28;20052;-74
2022/06/04 06:32:06;;;;;;;22.23;17.52;;;;;;;17.71;100.00;100330.38;5089645;28;20047;-74
2022/06/04 06:34:32;;;;;;;18.92;16.58;;;;;;;17.75;100.00;100334.28;5091782;28;20068;-73
2022/06/04 06:36:57;;;;;;;20.15;16.23;;;;;;;17.81;100.00;100333.41;5075053;28;20042;-76
2022/06/04 06:39:23;;;;;;;21.75;17.10;;;;;;;17.83;100.00;100330.50;5093334;28;20043;-75
2022/06/04 06:41:48;;;;;;;20.30;17.63;;;;;;;17.89;100.00;100322.38;5092571;28;20106;-76
2022/06/04 06:44:15;;;;;;;19.63;15.70;;;;;;;17.89;100.00;100319.66;5092757;28;20045;-75
2022/06/04 06:46:47;;;;;;;18.90;15.93;;;;;;;17.92;100.00;100325.66;5093022;28;20128;-76
2022/06/04 06:49:22;;;;;;;21.40;16.52;;;;;;;17.92;100.00;100325.66;5092961;28;20036;-76
2022/06/04 06:51:51;;;;;;;20.02;16.83;;;;;;;18.01;100.00;100329.75;5090875;28;20067;-76
2022/06/04 06:54:20;;;;;;;22.35;17.80;;;;;;;18.03;100.00;100327.66;5092882;28;20577;-76
2022/06/04 06:56:47;;;;;;;18.05;16.13;;;;;;;18.04;100.00;100323.91;5091582;28;20093;-75
2022/06/04 06:59:12;;;;;;;20.48;18.23;;;;;;;18.08;100.00;100336.72;5091709;28;20046;-74
2022/06/04 07:01:38;;;;;;;23.20;18.50;;;;;;;18.16;100.00;100339.13;5092527;28;20031;-75
2022/06/04 07:04:04;;;;;;;21.17;17.75;;;;;;;18.15;100.00;100329.41;5092445;28;20036;-75
2022/06/04 07:06:44;;;;;;;19.73;17.17;;;;;;;18.22;100.00;100336.59;5092941;28;20397;-75
2022/06/04 07:09:40;;;;;;;22.08;18.48;;;;;;;18.34;100.00;100334.84;5093193;28;20069;-74
2022/06/04 07:12:07;;;;;;;19.23;17.20;;;;;;;18.38;100.00;100320.66;5091230;28;20066;-74
2022/06/04 07:14:33;;;;;;;20.35;17.67;;;;;;;18.48;100.00;100314.78;5092840;28;20408;-74
2022/06/04 07:16:59;;;;;;;21.80;17.52;;;;;;;18.55;100.00;100318.22;5092154;28;20044;-74
2022/06/04 07:19:26;;;;;;;22.88;18.23;;;;;;;18.51;100.00;100319.72;5092703;28;20032;-74
2022/06/04 07:21:53;;;;;;;18.70;16.70;;;;;;;18.65;100.00;100302.38;5091733;28;20036;-75
2022/06/04 07:24:19;;;;;;;20.98;17.60;;;;;;;18.68;100.00;100309.22;5074207;28;20123;-74
2022/06/04 07:26:45;;;;;;;20.23;17.35;;;;;;;18.63;100.00;100311.72;5092533;28;20119;-76
2022/06/04 07:29:12;;;;;;;22.38;18.63;;;;;;;18.65;100.00;100320.44;5092888;28;20408;-75
2022/06/04 07:31:38;;;;;;;23.50;18.23;;;;;;;18.64;100.00;100311.47;5090402;28;20048;-74
2022/06/04 07:34:04;;;;;;;20.08;17.92;;;;;;;18.71;100.00;100311.44;5091631;28;20290;-74
2022/06/04 07:36:33;;;;;;;22.98;18.20;;;;;;;18.76;100.00;100316.16;5092046;28;20511;-75
2022/06/04 07:39:00;;;;;;;22.92;18.00;;;;;;;18.85;100.00;100312.97;5092116;28;20032;-73
2022/06/04 07:41:31;;;;;;;21.73;17.95;;;;;;;18.85;100.00;100293.25;5092012;28;20027;-74
2022/06/04 07:43:58;;;;;;;21.77;19.23;;;;;;;18.90;100.00;100298.75;5091677;28;20418;-74
2022/06/04 07:46:25;;;;;;;21.23;18.67;;;;;;;18.98;100.00;100301.19;5091903;28;20070;-74
2022/06/04 07:48:50;;;;;;;20.17;17.67;;;;;;;19.13;99.71;100306.19;5091874;28;20050;-74
2022/06/04 07:51:17;;;;;;;20.85;17.73;;;;;;;19.13;99.26;100304.28;5091736;28;20040;-73
2022/06/04 07:53:43;;;;;;;22.27;17.08;;;;;;;19.07;99.25;100307.09;5090766;28;20040;-74
2022/06/04 07:56:17;;;;;;;20.90;18.63;;;;;;;18.93;100.00;100304.56;5091514;28;20441;-74
2022/06/04 07:58:43;;;;;;;21.48;18.33;;;;;;;19.06;99.24;100311.66;5091619;28;20040;-74
2022/06/04 08:01:14;;;;;;;21.60;18.77;;;;;;;19.10;99.31;100320.94;5090125;28;20020;-74
2022/06/04 08:03:41;;;;;;;21.50;18.85;;;;;;;19.11;100.00;100316.38;5090137;28;20408;-74
2022/06/04 08:06:06;;;;;;;26.37;19.73;;;;;;;19.07;100.00;100317.88;5091525;28;20499;-73
2022/06/04 08:08:33;;;;;;;22.80;19.08;;;;;;;19.15;100.00;100322.97;5090534;28;20070;-73
2022/06/04 08:10:59;;;;;;;22.17;18.42;;;;;;;19.18;100.00;100331.44;5091649;28;20441;-73
2022/06/04 08:13:26;;;;;;;22.00;18.88;;;;;;;19.19;100.00;100327.69;5091385;28;20039;-73
2022/06/04 08:15:59;;;;;;;22.73;19.33;;;;;;;19.25;100.00;100334.06;5091943;28;20419;-74
2022/06/04 08:18:25;;;;;;;20.45;18.10;;;;;;;19.28;100.00;100338.16;5091757;28;20168;-73
2022/06/04 08:20:52;;;;;;;23.35;18.95;;;;;;;19.24;100.00;100341.34;5091555;28;20512;-73
2022/06/04 08:23:18;;;;;;;20.67;18.10;;;;;;;19.24;100.00;100337.81;5091095;28;20028;-73
2022/06/04 08:25:48;;;;;;;22.52;19.08;;;;;;;19.25;100.00;100339.47;5091600;28;20369;-74
2022/06/04 08:28:16;;;;;;;20.50;18.33;;;;;;;19.23;100.00;100352.34;5091542;28;20496;-72
2022/06/04 08:30:44;;;;;;;22.15;17.83;;;;;;;19.21;100.00;100357.97;5091434;28;20051;-73
2022/06/04 08:33:11;;;;;;;22.90;17.90;;;;;;;19.24;100.00;100356.72;5089886;28;20124;-72
2022/06/04 08:35:36;;;;;;;20.80;17.57;;;;;;;19.20;100.00;100360.91;5091590;28;20043;-72
2022/06/04 08:38:02;;;;;;;23.77;18.95;;;;;;;19.17;100.00;100364.91;5091513;28;20488;-72
2022/06/04 08:40:39;;;;;;;22.20;19.80;;;;;;;19.18;100.00;100365.72;5091738;28;20032;-73
2022/06/04 08:43:07;;;;;;;;;;;;;;;19.17;100.00;100372.16;5091627;28;20036;-73
2022/06/04 08:45:37;;;;;;;23.10;17.20;;;;;;;19.20;100.00;100371.72;5090292;28;20430;-73
2022/06/04 08:48:03;;;;;;;22.95;18.52;;;;;;;19.15;100.00;100371.56;5091474;28;20039;-73
2022/06/04 08:50:35;;;;;;;22.02;18.40;;;;;;;19.17;100.00;100373.00;5091382;28;20040;-75
2022/06/04 08:53:03;;;;;;;25.77;19.65;;;;;;;19.22;100.00;100386.63;5090595;28;20044;-73
2022/06/04 08:58:42;;;;;;;26.75;21.35;;;;;;;19.24;100.00;100395.34;5091536;28;20032;-73
2022/06/04 09:01:31;;;;;;;21.80;19.13;;;;;;;19.31;100.00;100394.44;5091503;28;20032;-75
2022/06/04 09:04:21;;;;;;;24.38;19.30;;;;;;;19.29;100.00;100396.53;5091240;28;20042;-75
2022/06/04 09:07:06;;;;;;;25.20;21.17;;;;;;;19.27;100.00;100399.44;5091300;28;20101;-75
2022/06/04 09:09:41;;;;;;;25.58;20.13;;;;;;;19.41;100.00;100408.22;5095060;28;20389;-75
2022/06/04 09:12:24;;;;;;;28.08;21.35;;;;;;;19.45;100.00;100407.53;5094660;28;20042;-76
2022/06/04 09:15:01;;;;;;;30.60;21.80;;;;;;;19.37;98.74;100410.56;5095145;28;20047;-76
2022/06/04 09:17:38;;;;;;;29.93;21.33;;;;;;;19.46;96.14;100420.00;5095136;28;20121;-76
2022/06/04 09:20:23;;;;;;;25.80;21.95;;;;;;;19.52;97.06;100423.66;5093834;28;20035;-74
2022/06/04 09:22:53;;;;;;;28.38;22.35;;;;;;;19.56;97.47;100427.56;5094819;28;20082;-76
2022/06/04 09:25:24;;;;;;;26.33;21.83;;;;;;;19.59;95.80;100419.03;5093614;28;20035;-76
2022/06/04 09:28:00;;;;;;;26.95;22.65;;;;;;;19.58;97.30;100433.59;5094757;28;20093;-74
2022/06/04 09:30:37;;;;;;;30.52;22.25;;;;;;;19.61;95.82;100438.53;5094720;28;20032;-73
2022/06/04 09:33:30;;;;;;;28.92;22.45;;;;;;;19.62;97.03;100440.16;5094262;28;20503;-73
2022/06/04 09:35:55;;;;;;;27.38;21.80;;;;;;;19.63;96.10;100428.34;5093482;28;20110;-73
2022/06/04 09:38:27;;;;;;;31.23;24.25;;;;;;;19.68;96.50;100431.16;5093294;28;20039;-73
2022/06/04 09:41:05;;;;;;;34.05;24.23;;;;;;;19.74;96.63;100429.41;5094561;28;20047;-74
2022/06/04 09:43:32;;;;;;;29.27;23.88;;;;;;;19.76;96.57;100433.56;5076056;28;20127;-74
2022/06/04 09:46:00;;;;;;;29.10;22.73;;;;;;;19.82;94.40;100437.19;5094526;28;20031;-75
2022/06/04 09:48:31;;;;;;;27.23;23.25;;;;;;;19.94;93.09;100437.25;5094351;28;20035;-72
2022/06/04 09:51:04;;;;;;;30.92;24.23;;;;;;;19.99;93.38;100446.31;5094186;28;20111;-74
2022/06/04 09:53:41;;;;;;;29.00;22.13;;;;;;;20.17;93.89;100439.22;5094106;28;20115;-74
2022/06/04 09:56:14;;;;;;;30.92;24.63;;;;;;;20.18;93.02;100436.25;5094487;28;20039;-74
2022/06/04 09:58:46;;;;;;;28.23;23.45;;;;;;;20.16;92.33;100438.38;5094219;28;20036;-73
2022/06/04 10:01:14;;;;;;;28.63;23.08;;;;;;;20.19;93.08;100448.72;5094125;28;20400;-74
2022/06/04 10:03:41;;;;;;;28.75;22.92;;;;;;;20.23;94.31;100441.81;5093883;28;20530;-74
2022/06/04 10:06:22;;;;;;;27.75;22.63;;;;;;;20.19;93.18;100446.03;5094121;28;20576;-75
2022/06/04 10:11:53;;;;;;;28.17;22.88;;;;;;;20.42;93.41;100439.03;5093719;28;20038;-74
2022/06/04 10:14:31;;;;;;;27.75;21.35;;;;;;;20.47;93.97;100450.81;5094002;28;20059;-74
2022/06/04 10:16:58;;;;;;;28.05;21.90;;;;;;;20.58;93.70;100446.47;5093994;28;20036;-74
2022/06/04 10:19:24;;;;;;;26.73;21.15;;;;;;;20.48;91.59;100446.25;5093831;28;20036;-74
2022/06/04 10:22:10;;;;;;;26.83;22.47;;;;;;;20.59;91.81;100446.22;5093654;28;20453;-74
2022/06/04 10:24:47;;;;;;;28.80;22.67;;;;;;;20.55;91.07;100445.06;5093831;28;20717;-74
2022/06/04 10:27:37;;;;;;;28.40;23.20;;;;;;;20.47;91.28;100439.97;5093966;28;20055;-74
2022/06/04 10:30:17;;;;;;;30.50;24.58;;;;;;;20.55;90.17;100434.25;5092591;28;20068;-75
2022/06/04 10:32:51;;;;;;;30.42;23.77;;;;;;;20.69;90.35;100440.25;5093430;28;20046;-74
2022/06/04 10:35:53;;;;;;;29.50;23.38;;;;;;;20.69;89.64;100442.97;5093651;28;20504;-75
2022/06/04 10:38:32;;;;;;;28.02;22.05;;;;;;;20.80;88.00;100442.16;5093633;28;20035;-75
2022/06/04 10:41:15;;;;;;;25.55;21.13;;;;;;;20.82;89.37;100450.03;5093418;28;20071;-75
2022/06/04 10:44:06;;;;;;;27.40;21.65;;;;;;;20.95;88.21;100444.38;5093207;28;20048;-74
2022/06/04 10:46:50;;;;;;;31.60;21.98;;;;;;;21.05;87.23;100439.16;5093463;28;20042;-74
2022/06/04 10:49:48;;;;;;;28.27;23.02;;;;;;;21.03;86.83;100445.88;5092006;28;20032;-74
2022/06/04 10:52:58;;;;;;;25.88;20.42;;;;;;;21.20;86.48;100444.09;5092812;28;20469;-74
2022/06/04 10:55:27;;;;;;;26.13;21.52;;;;;;;21.39;86.27;100442.09;5010755;28;20499;-74
2022/06/04 10:58:23;;;;;;;25.73;21.30;;;;;;;21.35;86.83;100444.44;5010870;28;20471;-73
2022/06/04 11:01:02;;;;;;;28.70;21.63;;;;;;;21.50;84.37;100443.09;5070826;28;20516;-74
2022/06/04 11:03:52;;;;;;;27.17;21.48;;;;;;;21.50;85.13;100441.22;5091595;28;20416;-75
2022/06/04 11:06:25;;;;;;;25.83;21.55;;;;;;;21.50;84.39;100445.81;5093048;28;20043;-74
2022/06/04 11:08:57;;;;;;;30.30;21.00;;;;;;;21.62;83.94;100450.13;5092972;28;20040;-73
2022/06/04 11:11:31;;;;;;;26.42;21.70;;;;;;;21.52;83.94;100439.13;5092689;28;20039;-73
2022/06/04 11:14:04;;;;;;;24.27;19.85;;;;;;;21.47;84.63;100441.72;5092516;28;20038;-73
2022/06/04 11:16:38;;;;;;;26.05;21.40;;;;;;;21.68;83.47;100443.75;5092583;28;20035;-74
2022/06/04 11:19:33;;;;;;;28.55;22.20;;;;;;;21.65;83.99;100440.72;5092626;28;20051;-74
2022/06/04 11:22:11;;;;;;;30.90;23.73;;;;;;;21.65;82.62;100438.84;5084932;28;20123;-75
2022/06/04 11:24:48;;;;;;;30.40;23.08;;;;;;;21.68;82.13;100443.75;5092462;28;20477;-75
2022/06/04 11:27:28;;;;;;;28.35;21.75;;;;;;;21.82;82.90;100443.47;5092550;28;20043;-74
2022/06/04 11:29:54;;;;;;;29.98;24.00;;;;;;;21.84;82.71;100442.19;5092299;28;20040;-75
2022/06/04 11:32:35;;;;;;;27.35;21.08;;;;;;;22.14;80.84;100436.50;5091495;28;20093;-76
2022/06/04 11:35:23;;;;;;;26.98;22.13;;;;;;;22.23;79.80;100439.63;5092602;28;20067;-78
2022/06/04 11:38:13;;;;;;;30.48;23.95;;;;;;;22.12;79.28;100440.53;5093307;28;20421;-77
2022/06/04 11:41:06;;;;;;;29.40;22.73;;;;;;;22.20;79.26;100443.66;5091435;28;20378;-76
2022/06/04 11:44:15;;;;;;;28.15;23.40;;;;;;;22.11;79.52;100436.19;5091848;28;20047;-76
2022/06/04 11:47:04;;;;;;;27.30;22.73;;;;;;;22.25;79.79;100437.50;5061369;28;20128;-75
2022/06/04 11:49:45;;;;;;;28.65;22.48;;;;;;;22.32;80.09;100434.63;5078507;28;20064;-77
2022/06/04 11:52:32;;;;;;;71.53;25.98;;;;;;;22.53;79.82;100431.16;5071806;28;20127;-76
2022/06/04 11:55:25;;;;;;;30.95;22.73;;;;;;;22.54;78.97;100432.00;5080284;28;20048;-76
2022/06/04 11:57:53;;;;;;;26.63;22.15;;;;;;;22.56;78.30;100421.69;5081735;28;20029;-77
2022/06/04 12:00:36;;;;;;;27.42;21.77;;;;;;;22.68;78.51;100427.84;5086490;28;20062;-76
2022/06/04 12:03:05;;;;;;;30.95;23.55;;;;;;;22.71;77.69;100424.66;5091171;28;20112;-76
2022/06/04 12:05:39;;;;;;;27.00;21.80;;;;;;;22.67;77.04;100423.50;5092195;28;20032;-77
2022/06/04 12:08:12;;;;;;;27.95;22.90;;;;;;;22.79;77.55;100415.25;5092235;28;20515;-76
2022/06/04 12:11:03;;;;;;;32.47;25.90;;;;;;;22.63;76.85;100408.81;5091829;28;20051;-75
2022/06/04 12:13:51;;;;;;;27.15;21.88;;;;;;;22.80;77.08;100412.28;5091381;28;20687;-76
2022/06/04 12:16:54;;;;;;;31.27;23.13;;;;;;;22.82;77.03;100407.47;5091618;28;20051;-75
2022/06/04 12:25:42;;;;;;;28.77;20.65;;;;;;;24.03;73.57;100410.00;5091558;28;20485;-76
2022/06/04 12:28:28;;;;;;;26.58;22.88;;;;;;;24.54;69.40;100409.63;5091542;28;20032;-75
2022/06/04 12:30:54;;;;;;;30.17;24.25;;;;;;;24.77;66.84;100411.13;5091423;28;20055;-77
2022/06/04 12:33:50;;;;;;;30.27;23.85;;;;;;;24.70;66.92;100400.47;5091040;28;20566;-78
2022/06/04 12:36:27;;;;;;;30.50;24.48;;;;;;;24.00;69.70;100407.81;5093063;28;20123;-77
2022/06/04 12:39:21;;;;;;;26.52;22.63;;;;;;;24.66;68.19;100407.53;5093533;28;20036;-75
2022/06/04 12:41:49;;;;;;;29.52;23.90;;;;;;;24.78;66.98;100412.81;5091499;28;20099;-77
2022/06/04 12:44:29;;;;;;;33.00;25.65;;;;;;;24.76;67.48;100413.03;5095526;28;20043;-75
2022/06/04 12:47:08;;;;;;;30.50;23.40;;;;;;;24.85;66.84;100411.47;5095532;28;20043;-77
2022/06/04 12:49:40;;;;;;;29.33;22.60;;;;;;;25.01;64.70;100403.38;5095490;28;20084;-75
2022/06/04 12:52:35;;;;;;;26.42;21.58;;;;;;;25.05;65.56;100410.78;5094280;28;20466;-78
2022/06/04 12:55:21;;;;;;;27.70;21.13;;;;;;;24.86;66.16;100417.75;5023088;28;20224;-76
2022/06/04 12:57:59;;;;;;;24.27;19.65;;;;;;;24.97;65.70;100413.16;5095223;28;20040;-75
2022/06/04 13:00:32;;;;;;;24.08;19.75;;;;;;;25.42;61.92;100404.38;5096451;28;20051;-77
2022/06/04 13:03:07;;;;;;;24.13;17.80;;;;;;;26.55;59.55;100405.41;5095274;28;20485;-77
2022/06/04 13:05:35;;;;;;;21.15;18.23;;;;;;;27.54;57.33;100409.19;5095360;28;20125;-75
2022/06/04 13:08:19;;;;;;;22.52;17.45;;;;;;;28.27;55.65;100405.72;5095145;28;20107;-75
2022/06/04 13:10:58;;;;;;;18.75;16.75;;;;;;;28.65;53.13;100404.00;5095060;28;20066;-75
2022/06/04 13:13:54;;;;;;;20.08;17.13;;;;;;;28.45;52.09;100406.97;5094787;28;20032;-75
2022/06/04 13:16:26;;;;;;;19.10;17.10;;;;;;;27.92;54.88;100402.16;5094887;28;20101;-75
2022/06/04 13:18:58;;;;;;;18.63;16.63;;;;;;;27.79;55.51;100398.13;5094986;28;20457;-76
2022/06/04 13:21:24;;;;;;;19.73;17.63;;;;;;;27.55;55.25;100403.44;5094633;28;20435;-75
2022/06/04 13:23:59;;;;;;;17.90;16.00;;;;;;;27.06;57.42;100400.69;5094578;28;20044;-75
2022/06/04 13:26:45;;;;;;;20.05;15.88;;;;;;;27.07;55.55;100405.03;5094864;28;20493;-76
2022/06/04 13:29:20;;;;;;;16.25;14.15;;;;;;;27.27;55.11;100404.13;5094735;28;20062;-76
2022/06/04 13:31:52;;;;;;;21.55;16.95;;;;;;;27.08;55.31;100397.66;5094109;28;20085;-76
2022/06/04 13:34:20;;;;;;;20.23;16.35;;;;;;;26.57;57.06;100398.56;5093351;28;20109;-76
2022/06/04 13:36:48;;;;;;;17.98;15.45;;;;;;;26.70;57.32;100397.19;5094609;28;20106;-75
2022/06/04 13:39:18;;;;;;;20.90;16.45;;;;;;;26.66;57.61;100394.16;5094410;28;20069;-74
2022/06/04 13:42:02;;;;;;;19.05;16.40;;;;;;;26.65;57.48;100399.91;5094263;28;20066;-75
2022/06/04 13:44:27;;;;;;;19.23;16.13;;;;;;;26.64;58.58;100392.81;5094606;28;20123;-75
2022/06/04 13:47:22;;;;;;;16.50;14.55;;;;;;;26.29;58.85;100396.38;5094507;28;20558;-74
2022/06/04 13:49:51;;;;;;;17.77;15.98;;;;;;;25.83;59.33;100394.44;5094515;28;20064;-74
2022/06/04 13:52:21;;;;;;;16.88;14.38;;;;;;;26.03;60.10;100398.28;5092758;28;20040;-75
2022/06/04 13:55:08;;;;;;;15.48;13.80;;;;;;;26.03;59.90;100398.28;5093980;28;20035;-76
2022/06/04 13:57:44;;;;;;;15.65;12.85;;;;;;;26.14;56.89;100398.00;5093154;28;20044;-75
2022/06/04 14:00:17;;;;;;;15.75;12.60;;;;;;;25.73;57.85;100399.88;5094303;28;20119;-76
2022/06/04 14:02:46;;;;;;;14.82;12.43;;;;;;;26.02;56.49;100396.63;5093929;28;20032;-75
2022/06/04 14:05:44;;;;;;;15.02;11.45;;;;;;;25.94;56.27;100389.81;5094268;28;20507;-76
2022/06/04 14:08:19;;;;;;;14.38;12.63;;;;;;;26.00;57.09;100385.19;5094876;28;20071;-77
2022/06/04 14:10:57;;;;;;;14.77;11.77;;;;;;;26.05;57.40;100386.00;5094199;28;20054;-77
2022/06/04 14:13:44;;;;;;;14.90;12.65;;;;;;;26.03;55.76;100376.47;5093694;28;20279;-74
2022/06/04 14:16:13;;;;;;;15.27;11.45;;;;;;;26.20;57.81;100379.72;5093947;28;20092;-74
2022/06/04 14:19:08;;;;;;;14.82;11.98;;;;;;;26.07;56.10;100367.44;5093915;28;20046;-75
2022/06/04 14:22:01;;;;;;;13.82;12.38;;;;;;;26.11;56.51;100373.19;5079202;28;20032;-75
2022/06/04 14:24:42;;;;;;;13.93;12.13;;;;;;;26.14;56.64;100373.44;5093887;28;20067;-75
2022/06/04 14:27:22;;;;;;;15.13;13.23;;;;;;;26.11;56.56;100368.53;5093728;28;20419;-76
2022/06/04 14:29:59;;;;;;;13.93;12.27;;;;;;;25.98;56.32;100367.16;5093883;28;20127;-74
2022/06/04 14:32:39;;;;;;;13.45;12.00;;;;;;;25.85;58.26;100375.91;5093036;28;20043;-75
2022/06/04 14:35:36;;;;;;;14.77;12.55;;;;;;;25.87;56.98;100367.44;5093517;28;20028;-76
2022/06/04 14:38:12;;;;;;;16.30;11.75;;;;;;;26.02;55.36;100369.34;5077385;28;20487;-74
2022/06/04 14:40:59;;;;;;;12.75;10.52;;;;;;;25.91;55.04;100369.34;5093527;28;20051;-76
2022/06/04 14:43:55;;;;;;;12.43;10.25;;;;;;;26.13;56.19;100373.72;5091880;28;20493;-78
2022/06/04 14:47:11;;;;;;;16.10;9.32;;;;;;;25.73;55.92;100363.59;5094181;28;20077;-75
2022/06/04 14:50:00;;;;;;;14.68;11.00;;;;;;;25.97;56.40;100359.25;5093321;28;20036;-74
2022/06/04 14:52:45;;;;;;;16.25;11.85;;;;;;;26.00;57.00;100364.16;5091738;28;20402;-74
2022/06/04 14:55:21;;;;;;;12.75;11.05;;;;;;;26.11;55.97;100363.06;5092031;28;20048;-74
2022/06/04 14:58:16;;;;;;;12.60;11.35;;;;;;;26.16;55.79;100354.91;5093859;28;20036;-75
2022/06/04 15:00:56;;;;;;;13.25;11.15;;;;;;;25.86;56.03;100360.34;5093266;28;20554;-75
2022/06/04 15:03:31;;;;;;;15.52;12.00;;;;;;;25.97;56.49;100359.25;5091392;28;20127;-75
2022/06/04 15:05:59;;;;;;;17.60;13.88;;;;;;;25.65;57.86;100349.38;5090905;28;20032;-74
2022/06/04 15:08:27;;;;;;;;;;;;;;;25.81;59.07;100357.59;5093381;28;20036;-73
2022/06/04 15:11:04;;;;;;;14.80;13.07;;;;;;;25.88;58.02;100358.97;5093111;28;19912;-74
2022/06/04 15:13:43;;;;;;;16.40;13.52;;;;;;;25.59;57.13;100358.63;5091319;28;20370;-75
2022/06/04 15:16:16;;;;;;;14.63;12.95;;;;;;;25.79;58.01;100362.50;5092825;28;20031;-75
2022/06/04 15:18:50;;;;;;;15.90;13.10;;;;;;;25.74;57.20;100357.88;5092635;28;20024;-74
2022/06/04 15:21:43;;;;;;;14.02;11.50;;;;;;;25.77;57.31;100349.16;5091445;28;20170;-74
2022/06/04 15:24:33;;;;;;;17.98;14.57;;;;;;;25.72;57.30;100351.84;5091256;28;20060;-74
2022/06/04 15:27:10;;;;;;;16.27;13.75;;;;;;;25.81;57.67;100354.88;5092533;28;20031;-74
2022/06/04 15:35:52;;;;;;;15.48;13.88;;;;;;;25.81;59.51;100341.22;5092913;28;20123;-74
2022/06/04 15:38:26;;;;;;;15.52;13.77;;;;;;;25.59;59.05;100334.09;5092326;28;20127;-75
2022/06/04 15:40:58;;;;;;;14.52;12.85;;;;;;;25.58;59.74;100337.91;5092303;28;20036;-74
2022/06/04 15:43:33;;;;;;;14.70;13.23;;;;;;;25.60;58.89;100322.09;5091775;28;20036;-75
2022/06/04 15:46:18;;;;;;;14.43;12.25;;;;;;;25.66;58.31;100323.72;5092306;28;20488;-75
2022/06/04 15:48:49;;;;;;;14.32;12.75;;;;;;;25.68;58.99;100328.91;5092271;28;20032;-75
2022/06/04 15:56:50;;;;;;;15.27;11.88;;;;;;;25.56;58.57;100314.72;5092097;28;20054;-74
2022/06/04 15:59:20;;;;;;;13.90;11.65;;;;;;;25.36;58.99;100324.50;5091877;28;20469;-76
2022/06/04 16:01:54;;;;;;;12.48;11.15;;;;;;;25.50;58.80;100318.53;5091686;28;20028;-73
2022/06/04 16:04:44;;;;;;;12.05;10.85;;;;;;;25.49;59.56;100312.25;5092515;28;20028;-76
2022/06/04 16:07:29;;;;;;;12.35;10.88;;;;;;;25.46;59.17;100306.53;5091575;28;20501;-76
2022/06/04 16:10:37;;;;;;;13.80;10.85;;;;;;;25.32;59.38;100320.69;5091879;28;20355;-76
2022/06/04 16:13:08;;;;;;;11.45;10.20;;;;;;;25.30;59.15;100316.56;5008976;28;20402;-76
2022/06/04 16:15:58;;;;;;;11.05;9.95;;;;;;;25.31;58.54;100316.31;5009567;28;20040;-76
2022/06/04 16:18:47;;;;;;;13.85;10.02;;;;;;;25.24;57.67;100304.03;5066211;28;20036;-75
2022/06/04 16:21:36;;;;;;;12.60;10.35;;;;;;;25.16;58.95;100300.72;5090597;28;20481;-75
2022/06/04 16:24:10;;;;;;;11.35;9.90;;;;;;;25.07;59.17;100305.06;5090392;28;20051;-75
2022/06/04 16:26:48;;;;;;;16.02;9.98;;;;;;;25.14;59.12;100305.63;5091688;28;20031;-74